Weather at Aichach Glider Field

Public forecast

Using degrees Celsius for public forecast. Weather courtesy of forecast.io.

Closest aviation weather report (METAR) to Aichach Glider Field

Closest report is Augsburg Airport, 8.5 nm (15.8 km) WSW. Retrieved 2022/06/29 00:50 UTC (24 minutes ago):

EDMA 290050Z AUTO 12003KT 9999 NCD 16/15 Q1015

Closest aviation forecast (TAF) to Aichach Glider Field

Forecast is more than 12 hours old.

Closest forecast is Augsburg Airport, 8.5 nm (15.8 km) WSW. Retrieved 2009/12/02 06:00 UTC (13 years ago):

TAF COR EDMA 020600Z 0206/0220 VRB03KT 3000 BR SCT004 PROB40 TEMPO 0206/0208 0600 FG VV002 BECMG 0208/0210 9999